KCDS/CDS METAR and TAF weather

Enter ICAO airport designator
Station Type Date Time Source
KCDS METAR 2021/09/28 16:53 UTC NOAA

KCDS 281653Z AUTO 28007KT 10SM CLR 29/13 A2989 RMK AO2 SLP095 T02890133


Station Type Date Time Source
KCDS Decoded METAR 2021/09/28 16:53 UTC NOAA

CHILDRESS MUNICIPAL AIRPORT, TX, United States (KCDS) 34-26N 100-17W 594M
Sep 28, 2021 - 12:53 PM EDT / 2021.09.28 1653 UTC
Wind: from the W (280 degrees) at 8 MPH (7 KT):0
Visibility: 10 mile(s):0
Sky conditions: clear
Temperature: 84.0 F (28.9 C)
Dew Point: 55.9 F (13.3 C)
Relative Humidity: 38%
Pressure (altimeter): 29.89 in. Hg (1012 hPa)
ob: KCDS 281653Z AUTO 28007KT 10SM CLR 29/13 A2989 RMK AO2 SLP095 T02890133
cycle: 17

Station Type Date Time Source
KCDS TAF 2021/09/28 12:42 UTC NOAA

TAF KCDS 281140Z 2812/2912 18007KT P6SM SCT250
FM282200 21017KT P6SM VCTS SCT100CB SCT250
FM290400 15015KT P6SM SCT250

Example: see airport list